Aviation Digital Data Service (ADDS)

Output produced by METARs form (2145 UTC 26 July 2016)
found at http://www.aviationweather.gov/adds/metars/
 
KFIG 262054Z AUTO 29008KT 10SM CLR 31/12 A3000 RMK AO2 SLP144 T03110122 58012
KFIG 261954Z AUTO 31009KT 10SM CLR 31/12 A3001 RMK AO2 SLP148 T03110117
KFIG 261854Z AUTO 29011G19KT 250V320 10SM CLR 31/12 A3003 RMK AO2 SLP155 T03110117
KFIG 261754Z AUTO 31011G15KT 10SM CLR 31/14 A3003 RMK AO2 SLP156 T03060144 10306 20206 58007
KFIG 261654Z AUTO 27008KT 10SM CLR 29/15 A3004 RMK AO2 SLP160 T02940150
KFIG 261554Z AUTO 29009KT 10SM FEW038 28/17 A3005 RMK AO2 SLP164 T02780167
KFIG 261454Z AUTO VRB06KT 10SM CLR 27/18 A3005 RMK AO2 SLP165 T02670178 58001
KFIG 261354Z AUTO 33005KT 10SM CLR 24/19 A3005 RMK AO2 SLP166 T02440189
KFIG 261306Z AUTO 34003KT 10SM FEW009 21/19 A3005 RMK AO2 T02110194
KFIG 261254Z AUTO 34004KT 10SM FEW012 21/19 A3005 RMK AO2 SLP167 T02110194
KFIG 261251Z AUTO 34004KT 10SM SCT012 21/19 A3005 RMK AO2
KFIG 261228Z AUTO 32006KT 9SM SCT003 OVC012 21/19 A3006 RMK AO2 T02060194
KFIG 261221Z AUTO 31004KT 2SM BR BKN003 OVC012 21/19 A3006 RMK AO2 T02060194
KFIG 261216Z AUTO 32003KT 1/2SM FG BKN003 OVC012 21/19 A3005 RMK AO2 T02060194
KFIG 261154Z AUTO 23003KT M1/4SM FG VV002 21/19 A3005 RMK AO2 SLP165 70034 T02060194 10211 20194 53015
KFIG 261054Z AUTO VRB03KT M1/4SM FG VV002 21/19 A3003 RMK AO2 SLP160 T02060194
KFIG 260954Z AUTO 21005KT 1/4SM FG VV002 21/19 A3002 RMK AO2 SLP154 T02060194
KFIG 260854Z AUTO 19004KT 1/4SM FG VV002 21/20 A3000 RMK AO2 SLP148 T02110200 53002
KFIG 260754Z AUTO 21003KT 1/4SM FG VV002 21/20 A2999 RMK AO2 SLP146 T02110200
KFIG 260654Z AUTO 23005KT 1/4SM FG VV002 21/20 A2999 RMK AO2 SLP141 T02110200
KFIG 260650Z AUTO 22005KT 3/4SM BR VV002 21/19 A2999 RMK AO2
KFIG 260647Z AUTO 23004KT 2 1/2SM BR SCT002 21/19 A2999 RMK AO2 T02060194
KFIG 260638Z AUTO 22004KT 3SM BR BKN002 21/19 A2999 RMK AO2 T02060194
KFIG 260635Z AUTO 22005KT 1SM BR VV002 21/19 A2999 RMK AO2 VIS 1/4V4 T02060194
KFIG 260613Z AUTO 00000KT 1/4SM FG VV002 21/20 A2999 RMK AO2 T02110200
KFIG 260604Z AUTO 21003KT 3/4SM BR VV002 21/19 A2999 RMK AO2 T02060194
KFIG 260559Z AUTO 00000KT 1 1/4SM BR SCT003 21/19 A3000 RMK AO2 T02060194
KFIG 260554Z AUTO 00000KT 1/2SM FG VV003 21/19 A3000 RMK AO2 SLP143 T02060194 10244 20206 51002
KFIG 260547Z AUTO 00000KT 1/4SM FG VV003 21/19 A3000 RMK AO2 T02060194
KFIG 260539Z AUTO 00000KT 3/4SM BR VV002 21/20 A3000 RMK AO2 VIS 1/2V2 1/2 T02110200
KFIG 260531Z AUTO 00000KT 1 3/4SM BR FEW002 21/20 A3000 RMK AO2 T02110200
KFIG 260505Z AUTO 23003KT 4SM BR FEW002 22/21 A3000 RMK AO2 T02170206
KFIG 260458Z AUTO 22004KT 2 1/2SM BR SCT002 22/21 A3000 RMK AO2 T02170206
KFIG 260454Z AUTO 21003KT 1 1/4SM BR BKN002 22/21 A3000 RMK AO2 SLP143 T02170206 403440206
KFIG 260449Z AUTO 22003KT 1 1/4SM BR BKN002 22/21 A2999 RMK AO2 VIS 1/2V4
KFIG 260421Z AUTO 20005KT 1/2SM FG VV002 22/21 A2999 RMK AO2 T02220211
KFIG 260413Z AUTO 20003KT 1SM BR BKN002 BKN050 22/21 A2999 RMK AO2 T02220211
KFIG 260402Z AUTO 22003KT 1 1/2SM BR SCT002 22/21 A2999 RMK AO2 T02220211
KFIG 260353Z AUTO 26003KT 3SM BR SCT002 22/21 A2999 RMK AO2 SLP142 T02220206
KFIG 260352Z AUTO 00000KT 1 1/2SM BR SCT002 22/21 A2999 RMK AO2
KFIG 260345Z AUTO VRB03KT 3/4SM BR VV002 22/21 A2999 RMK AO2 VIS 1/4V5 T02220211
KFIG 260328Z AUTO 18004KT 1/4SM FG BKN002 OVC040 23/22 A2999 RMK AO2 T02280217
KFIG 260322Z AUTO 00000KT 1SM BR BKN002 BKN040 22/21 A2999 RMK AO2 T02220211
KFIG 260314Z AUTO 00000KT 1SM BR FEW003 BKN040 22/21 A2999 RMK AO2 T02220211
KFIG 260306Z AUTO 00000KT 2 1/2SM BR FEW003 23/21 A2999 RMK AO2 T02280211
KFIG 260254Z AUTO 00000KT 6SM BR CLR 23/21 A2999 RMK AO2 SLP142 T02280211 51012
KFIG 260154Z AUTO 00000KT 5SM BR SCT004 23/22 A2999 RMK AO2 SLP143 T02280217
KFIG 260146Z AUTO 18003KT 5SM BR SCT004 23/22 A2998 RMK AO2 T02280217
KFIG 260128Z AUTO 09003KT 5SM BR CLR 23/22 A2997 RMK AO2 T02330217
KFIG 260114Z AUTO 00000KT 2 1/2SM BR FEW003 24/22 A2997 RMK AO2 VIS 3/4V5 T02390222
KFIG 260054Z AUTO 00000KT 3SM BR CLR 24/22 A2997 RMK AO2 SLP137 T02390222
KFIG 252354Z AUTO 00000KT 10SM CLR 24/22 A2995 RMK AO2 SLP133 60034 T02440222 10344 20217 55000
KFIG 252254Z AUTO 19005KT 10SM CLR 25/22 A2995 RMK AO2 SLP132 T02500222
KFIG 252154Z AUTO 23004KT 10SM FEW043 SCT075 SCT095 23/22 A2995 RMK AO2 LTG DSNT SW RAB10E49 TSB26E41 SLP132 P0006 T02330217
KFIG 252152Z AUTO 23005KT 10SM FEW041 SCT075 BKN100 23/22 A2995 RMK AO2 LTG DSNT SW RAB10E49 TSB26E41 P0006
KFIG 252143Z AUTO 21006KT 3SM VCTS -RA FEW032 SCT039 BKN075 24/21 A2996 RMK AO2 LTG DSNT SE-SW RAB10 TSB26E41 P0006 T02390211
KFIG 252132Z AUTO 18007KT 2 1/2SM +TSRA BR FEW032 BKN090 OVC110 24/22 A2996 RMK AO2 LTG DSNT S AND SW RAB10 TSB26 P0003 T02440222
KFIG 252117Z AUTO VRB04KT 10SM VCTS -RA FEW032 SCT090 BKN110 25/22 A2996 RMK AO2 LTG DSNT SE-W RAB10 P0000 T02500217
KFIG 252054Z AUTO 35004KT 10SM CLR 27/22 A2995 RMK AO2 WSHFT 1945 LTG DSNT E-S RAE16 TSE16 SLP129 P0004 60028 T02670217 50005
KFIG 252031Z AUTO 34007KT 10SM FEW075 25/21 A2995 RMK AO2 WSHFT 1945 LTG DSNT E-SW RAE16 TSE16 P0004 T02500211
KFIG 252022Z AUTO 34010KT 10SM VCTS FEW017 FEW060 SCT080 24/21 A2995 RMK AO2 WSHFT 1945 LTG DSNT ALQDS RAE16 TSE16 P0004 T02390211
KFIG 252005Z AUTO 33011KT 3SM -TSRA BR SCT018 BKN048 OVC090 22/20 A2994 RMK AO2 WSHFT 1945 LTG DSNT ALQDS P0004 T02220200
KFIG 252003Z AUTO 33012G25KT 1 1/4SM -TSRA SCT018 BKN048 BKN065 22/19 A2994 RMK AO2 WSHFT 1945 VIS 1/4V5 LTG DSNT ALQDS P0004 T02220194
KFIG 251954Z AUTO 31020G43KT 1/2SM +TSRA FEW018 SCT039 BKN050 23/19 A2997 RMK AO2 PK WND 30043/1950 LTG DSNT ALQDS RAB49 TSB37 PRESRR SLP138 P0024 T02280194
KFIG 251951Z AUTO 30030G43KT 1 1/4SM -TSRA FEW025 SCT039 BKN050 24/20 A2996 RMK AO2 PK WND 30043/1950 LTG DSNT ALQDS RAB49 TSB37 PRESRR P0009
KFIG 251943Z AUTO 26010G16KT 10SM TS SCT050 SCT100 32/19 A2991 RMK AO2 LTG DSNT ALQDS TSB37 T03170194
KFIG 251927Z AUTO 28009G20KT 10SM VCTS FEW049 33/20 A2990 RMK AO2 LTG DSNT W-NE T03280200
KFIG 251854Z AUTO 25010G21KT 10SM SCT049 SCT060 34/21 A2992 RMK AO2 LTG DSNT N SLP116 T03440206
KFIG 251754Z AUTO 24009G17KT 10SM SCT044 BKN060 33/21 A2993 RMK AO2 SLP121 T03280206 10339 20211 58022
KFIG 251654Z AUTO 23010G17KT 10SM SCT039 SCT060 33/22 A2995 RMK AO2 SLP128 T03280222
KFIG 251554Z AUTO VRB06KT 10SM FEW025 SCT034 29/23 A2998 RMK AO2 SLP138 T02940233
KFIG 251454Z AUTO 21006KT 10SM CLR 28/22 A3000 RMK AO2 SLP146 T02780222 58005
KFIG 251354Z AUTO 22008KT 10SM CLR 25/21 A3000 RMK AO2 SLP148 T02500211
KFIG 251254Z AUTO VRB05KT 10SM CLR 23/21 A3001 RMK AO2 SLP153 T02280206
KFIG 251215Z AUTO 21004KT 5SM BR FEW002 21/20 A3001 RMK AO2 T02110200
KFIG 251154Z AUTO 22004KT 3SM BR BKN002 21/20 A3001 RMK AO2 SLP154 70028 T02110200 10211 20206 56005
KFIG 251145Z AUTO 21004KT 2 1/2SM BR OVC002 21/20 A3000 RMK AO2 T02110200
KFIG 251132Z AUTO 20003KT 1SM BR VV002 21/20 A3001 RMK AO2 T02110200
KFIG 251054Z AUTO 19003KT 1/4SM FG VV002 21/20 A3002 RMK AO2 SLP155 T02060200
KFIG 250954Z AUTO 25003KT 1/4SM FG VV002 21/19 A3003 RMK AO2 SLP157 T02060194